createdAt,value
2019-06-27T00:01:12.367Z,70.52
2019-06-27T00:04:06.071Z,70.75
2019-06-27T00:07:00.042Z,70.74
2019-06-27T00:10:03.949Z,70.15
2019-06-27T00:13:05.335Z,69.48
2019-06-27T00:16:06.291Z,69.76
2019-06-27T00:19:04.358Z,69.47
2019-06-27T00:22:01.503Z,69.66
2019-06-27T00:25:14.191Z,69.39
2019-06-27T00:28:16.367Z,69.90
2019-06-27T00:31:22.239Z,69.97
2019-06-27T00:34:14.256Z,70.27
2019-06-27T00:37:18.365Z,70.01
2019-06-27T00:40:17.889Z,69.99
2019-06-27T00:43:10.695Z,69.73
2019-06-27T00:46:09.075Z,70.08
2019-06-27T00:49:04.646Z,70.08
2019-06-27T00:52:05.077Z,70.18
2019-06-27T00:55:04.295Z,70.66
2019-06-27T00:58:04.691Z,70.74
2019-06-27T01:01:05.142Z,70.87
2019-06-27T01:04:05.574Z,70.78
2019-06-27T01:06:58.027Z,70.23
2019-06-27T01:09:52.109Z,70.14
2019-06-27T01:12:46.677Z,70.30
2019-06-27T01:15:46.149Z,70.26
2019-06-27T01:18:52.479Z,70.38
2019-06-27T01:21:52.169Z,69.95
2019-06-27T01:24:41.108Z,70.10
2019-06-27T01:27:37.600Z,69.64
2019-06-27T01:30:31.856Z,69.52
2019-06-27T01:33:28.770Z,69.95
2019-06-27T01:36:34.123Z,69.87
2019-06-27T01:39:33.728Z,69.95
2019-06-27T01:42:41.085Z,69.90
2019-06-27T01:45:47.032Z,69.45
2019-06-27T01:48:52.452Z,69.81
2019-06-27T01:51:59.037Z,69.64
2019-06-27T01:55:00.169Z,69.58
2019-06-27T01:58:02.217Z,69.36
2019-06-27T02:00:57.757Z,69.37
2019-06-27T02:04:11.683Z,69.34
2019-06-27T02:07:05.346Z,69.07
2019-06-27T02:10:12.124Z,69.23
2019-06-27T02:13:14.185Z,69.02
2019-06-27T02:16:07.556Z,69.29
2019-06-27T02:19:10.483Z,69.11
2019-06-27T02:22:04.935Z,69.28
2019-06-27T02:24:53.400Z,69.28
2019-06-27T02:28:03.061Z,69.50
2019-06-27T02:34:13.818Z,69.43
2019-06-27T02:37:15.368Z,69.28
2019-06-27T02:40:15.992Z,69.58
2019-06-27T02:43:13.293Z,69.63
2019-06-27T02:46:10.468Z,69.18
2019-06-27T02:49:07.780Z,69.11
2019-06-27T02:52:03.086Z,69.27
2019-06-27T02:55:01.279Z,69.29
2019-06-27T02:58:28.004Z,69.30
2019-06-27T03:01:03.724Z,69.07
2019-06-27T03:03:54.629Z,69.36
2019-06-27T03:09:51.582Z,69.96
2019-06-27T03:12:41.410Z,70.20
2019-06-27T03:15:29.801Z,70.44
2019-06-27T03:18:17.766Z,70.41
2019-06-27T03:21:06.849Z,70.60
2019-06-27T03:24:04.353Z,70.70
2019-06-27T03:26:59.497Z,70.69
2019-06-27T03:29:59.193Z,70.53
2019-06-27T03:32:57.526Z,71.03
2019-06-27T03:36:02.939Z,70.90
2019-06-27T03:39:09.453Z,70.47
2019-06-27T03:42:07.834Z,69.63
2019-06-27T03:45:04.116Z,69.24
2019-06-27T03:48:02.283Z,69.32
2019-06-27T03:51:11.991Z,68.97
2019-06-27T03:54:16.272Z,68.75
2019-06-27T03:57:11.100Z,69.14
2019-06-27T04:00:12.057Z,69.84
2019-06-27T04:03:03.564Z,69.74
2019-06-27T04:05:54.883Z,69.40
2019-06-27T04:09:01.776Z,69.07
2019-06-27T04:12:10.572Z,69.07
2019-06-27T04:15:08.521Z,68.43
2019-06-27T04:18:03.507Z,68.49
2019-06-27T04:21:00.966Z,68.68
2019-06-27T04:24:17.969Z,68.49
2019-06-27T04:27:21.699Z,68.00
2019-06-27T04:30:31.245Z,67.71
2019-06-27T04:33:31.934Z,67.21
2019-06-27T04:36:32.602Z,66.87
2019-06-27T04:39:24.871Z,66.31
2019-06-27T04:42:21.211Z,66.47
2019-06-27T04:45:13.908Z,66.10
2019-06-27T04:48:24.114Z,66.35
2019-06-27T04:51:09.345Z,65.94
2019-06-27T04:54:05.125Z,65.24
2019-06-27T04:57:20.270Z,65.34
2019-06-27T05:00:16.210Z,65.98
2019-06-27T05:03:39.637Z,65.58
2019-06-27T05:06:57.502Z,65.49
2019-06-27T05:09:53.670Z,66.16
2019-06-27T05:12:45.146Z,65.46
2019-06-27T05:15:37.399Z,65.57
2019-06-27T05:18:32.477Z,65.89
2019-06-27T05:21:38.324Z,65.26
2019-06-27T05:24:53.736Z,65.29
2019-06-27T05:27:55.905Z,64.93
2019-06-27T05:31:01.422Z,65.11
2019-06-27T05:34:02.094Z,65.34
2019-06-27T05:37:03.700Z,65.91
2019-06-27T05:39:50.282Z,66.25
2019-06-27T05:42:43.344Z,65.90
2019-06-27T05:45:48.969Z,65.60
2019-06-27T05:48:39.771Z,65.04
2019-06-27T05:51:35.401Z,65.11
2019-06-27T05:54:43.495Z,64.30
2019-06-27T05:57:37.511Z,63.19
2019-06-27T06:00:30.941Z,62.25
2019-06-27T06:03:28.838Z,61.97
2019-06-27T06:06:31.653Z,60.90
2019-06-27T06:09:32.867Z,60.87
2019-06-27T06:12:34.263Z,60.23
2019-06-27T06:15:41.472Z,60.31
2019-06-27T06:18:52.367Z,60.60
2019-06-27T06:21:52.413Z,60.20
2019-06-27T06:25:21.457Z,59.68
2019-06-27T06:28:20.331Z,59.77
2019-06-27T06:31:30.425Z,58.91
2019-06-27T06:34:26.588Z,58.41
2019-06-27T06:37:47.979Z,58.61
2019-06-27T06:40:47.503Z,58.67
2019-06-27T06:43:57.626Z,58.34
2019-06-27T06:46:48.274Z,58.13
2019-06-27T06:49:53.721Z,58.53
2019-06-27T06:52:52.586Z,59.43
2019-06-27T06:55:57.482Z,59.44
2019-06-27T06:58:52.460Z,58.20
2019-06-27T07:01:45.921Z,57.71
2019-06-27T07:04:45.949Z,57.36
2019-06-27T07:07:52.273Z,57.83
2019-06-27T07:10:52.158Z,57.87
2019-06-27T07:13:48.267Z,58.22
2019-06-27T07:16:56.736Z,58.30
2019-06-27T07:19:47.776Z,58.08
2019-06-27T07:22:51.561Z,57.53
2019-06-27T07:25:43.807Z,57.67
2019-06-27T07:28:44.354Z,56.97
2019-06-27T07:31:37.617Z,56.10
2019-06-27T07:34:29.976Z,54.85
2019-06-27T07:37:46.332Z,55.32
2019-06-27T07:40:33.288Z,55.17
2019-06-27T07:43:33.265Z,55.32
2019-06-27T07:46:25.608Z,55.14
2019-06-27T07:49:26.600Z,54.93
2019-06-27T07:52:23.547Z,55.07
2019-06-27T07:55:34.116Z,55.37
2019-06-27T07:58:28.713Z,55.63
2019-06-27T08:01:35.573Z,55.83
2019-06-27T08:04:30.909Z,55.32
2019-06-27T08:07:24.598Z,55.22
2019-06-27T08:10:19.791Z,55.15
2019-06-27T08:13:13.433Z,54.41
2019-06-27T08:16:12.779Z,53.94
2019-06-27T08:19:04.554Z,54.08
2019-06-27T08:22:22.097Z,53.37
2019-06-27T08:25:17.292Z,51.77
2019-06-27T08:28:07.762Z,52.45
2019-06-27T08:31:01.301Z,52.34
2019-06-27T08:33:57.669Z,52.04
2019-06-27T08:36:57.653Z,52.45
2019-06-27T08:40:00.108Z,51.66
2019-06-27T08:43:06.494Z,51.11
2019-06-27T08:46:08.670Z,49.96
2019-06-27T08:49:12.971Z,49.48
2019-06-27T08:52:00.565Z,48.41
2019-06-27T08:55:03.343Z,48.95
2019-06-27T08:58:34.591Z,49.12
2019-06-27T09:01:31.616Z,48.58
2019-06-27T09:04:33.883Z,49.20
2019-06-27T09:07:38.223Z,48.62
2019-06-27T09:10:32.270Z,48.62
2019-06-27T09:13:24.803Z,48.22
2019-06-27T09:16:34.262Z,47.13
2019-06-27T09:19:25.355Z,46.54
2019-06-27T09:22:26.123Z,47.41
2019-06-27T09:25:45.407Z,48.02
2019-06-27T09:28:49.206Z,47.44
2019-06-27T09:31:46.117Z,47.26
2019-06-27T09:34:34.224Z,47.11
2019-06-27T09:37:39.435Z,45.92
2019-06-27T09:40:37.428Z,44.85
2019-06-27T09:43:29.086Z,43.66
2019-06-27T09:46:23.958Z,45.25
2019-06-27T09:49:15.750Z,46.04
2019-06-27T09:52:30.953Z,45.30
2019-06-27T09:55:47.743Z,45.26
2019-06-27T09:58:53.846Z,44.46
2019-06-27T10:01:47.760Z,43.39
2019-06-27T10:04:39.401Z,43.66
2019-06-27T10:07:39.586Z,42.91
2019-06-27T10:10:36.311Z,43.70
2019-06-27T10:13:26.767Z,43.39
2019-06-27T10:16:35.838Z,42.93
2019-06-27T10:19:27.097Z,42.50
2019-06-27T10:22:21.009Z,42.08
2019-06-27T10:25:26.005Z,41.97
2019-06-27T10:28:26.655Z,42.58
2019-06-27T10:31:23.886Z,43.34
2019-06-27T10:34:18.282Z,43.50
2019-06-27T10:37:16.921Z,43.24
2019-06-27T10:40:19.082Z,42.58
2019-06-27T10:43:13.901Z,42.12
2019-06-27T10:46:16.898Z,42.41
2019-06-27T10:49:22.104Z,40.50
2019-06-27T10:52:32.219Z,40.07
2019-06-27T10:55:28.745Z,40.31
2019-06-27T10:58:25.675Z,41.01
2019-06-27T11:01:17.035Z,40.98
2019-06-27T11:04:18.424Z,41.16
2019-06-27T11:07:17.122Z,39.41
2019-06-27T11:10:11.683Z,39.38
2019-06-27T11:13:27.238Z,40.17
2019-06-27T11:16:28.655Z,41.43
2019-06-27T11:19:15.487Z,41.52
2019-06-27T11:22:14.652Z,40.95
2019-06-27T11:25:05.062Z,41.28
2019-06-27T11:28:13.126Z,41.45
2019-06-27T11:31:12.473Z,40.82
2019-06-27T11:34:29.550Z,41.45
2019-06-27T11:37:25.968Z,40.92
2019-06-27T11:40:34.156Z,40.74
2019-06-27T11:43:26.822Z,40.45
2019-06-27T11:46:26.034Z,38.87
2019-06-27T11:49:26.363Z,39.63
2019-06-27T11:52:30.188Z,40.02
2019-06-27T11:55:26.935Z,39.21
2019-06-27T11:58:36.260Z,39.54
2019-06-27T12:01:32.137Z,37.27
2019-06-27T12:04:26.804Z,37.51
2019-06-27T12:07:32.875Z,36.77
2019-06-27T12:10:42.807Z,36.74
2019-06-27T12:13:34.961Z,36.88
2019-06-27T12:16:31.945Z,36.31
2019-06-27T12:19:29.894Z,36.88
2019-06-27T12:22:27.467Z,38.55
2019-06-27T12:25:18.173Z,38.64
2019-06-27T12:28:24.018Z,40.53
2019-06-27T12:31:31.135Z,40.15
2019-06-27T12:34:32.730Z,38.31
2019-06-27T12:37:29.472Z,36.74
2019-06-27T12:40:46.956Z,37.67
2019-06-27T12:43:44.435Z,36.25
2019-06-27T12:46:58.922Z,36.68
2019-06-27T12:50:02.205Z,36.48
2019-06-27T12:53:01.658Z,36.72
2019-06-27T12:56:25.293Z,35.63
2019-06-27T12:59:17.644Z,35.19
2019-06-27T13:02:13.222Z,35.79
2019-06-27T13:05:20.442Z,37.91
2019-06-27T13:08:23.452Z,38.14
2019-06-27T13:11:26.606Z,38.41
2019-06-27T13:14:25.639Z,38.39
2019-06-27T13:17:23.920Z,37.63
2019-06-27T13:20:22.368Z,37.45
2019-06-27T13:23:24.716Z,38.32
2019-06-27T13:26:27.138Z,38.90
2019-06-27T13:29:27.195Z,39.27
2019-06-27T13:32:21.117Z,37.16
2019-06-27T13:35:31.316Z,36.70
2019-06-27T13:38:37.418Z,36.96
2019-06-27T13:41:33.832Z,36.68
2019-06-27T13:44:35.446Z,36.01
2019-06-27T13:47:58.610Z,37.25
2019-06-27T13:50:46.416Z,37.03
2019-06-27T13:53:49.662Z,34.95
2019-06-27T13:56:46.846Z,36.13
2019-06-27T13:59:44.480Z,35.96
2019-06-27T14:02:38.277Z,36.19
2019-06-27T14:05:40.165Z,37.25
2019-06-27T14:09:04.524Z,37.42
2019-06-27T14:12:06.920Z,35.83
2019-06-27T14:15:07.449Z,35.69
2019-06-27T14:18:05.288Z,37.11
2019-06-27T14:20:52.714Z,36.79
2019-06-27T14:24:10.402Z,36.69
2019-06-27T14:27:04.742Z,37.24
2019-06-27T14:30:10.076Z,36.50
2019-06-27T14:33:09.848Z,36.28
2019-06-27T14:36:18.593Z,36.08
2019-06-27T14:39:16.621Z,35.84
2019-06-27T14:42:15.568Z,35.54
2019-06-27T14:45:09.263Z,35.63
2019-06-27T14:48:07.911Z,35.65
2019-06-27T14:50:56.799Z,35.23
2019-06-27T14:54:17.492Z,37.68
2019-06-27T14:57:30.531Z,37.80
2019-06-27T15:00:24.911Z,37.20
2019-06-27T15:03:17.933Z,36.82
2019-06-27T15:06:13.006Z,37.25
2019-06-27T15:09:05.925Z,36.77
2019-06-27T15:12:02.516Z,37.27
2019-06-27T15:15:01.938Z,38.14
2019-06-27T15:18:04.892Z,37.46
2019-06-27T15:20:57.547Z,37.15
2019-06-27T15:24:02.673Z,37.12
2019-06-27T15:26:55.765Z,36.30
2019-06-27T15:29:52.737Z,36.21
2019-06-27T15:32:49.057Z,36.88
2019-06-27T15:35:52.834Z,36.76
2019-06-27T15:38:36.568Z,35.61
2019-06-27T15:41:48.755Z,35.35
2019-06-27T15:44:47.894Z,35.12
2019-06-27T15:47:40.130Z,33.07
2019-06-27T15:50:31.476Z,32.48
2019-06-27T15:53:25.915Z,32.63
2019-06-27T15:56:13.735Z,32.32
2019-06-27T15:59:13.395Z,31.83
2019-06-27T16:02:12.359Z,31.86
2019-06-27T16:05:09.257Z,30.65
2019-06-27T16:08:03.584Z,30.03
2019-06-27T16:10:51.826Z,29.86
2019-06-27T16:13:50.067Z,29.62
2019-06-27T16:16:44.889Z,31.12
2019-06-27T16:19:39.041Z,30.96
2019-06-27T16:22:47.891Z,30.96
2019-06-27T16:25:39.880Z,30.69
2019-06-27T16:28:41.875Z,30.34
2019-06-27T16:31:34.054Z,30.59
2019-06-27T16:34:29.798Z,31.15
2019-06-27T16:37:37.805Z,32.77
2019-06-27T16:40:37.374Z,30.45
2019-06-27T16:43:34.195Z,30.55
2019-06-27T16:46:35.363Z,28.83
2019-06-27T16:49:34.126Z,27.72
2019-06-27T16:52:37.666Z,27.47
2019-06-27T16:55:27.654Z,26.66
2019-06-27T16:58:21.517Z,27.27
2019-06-27T17:01:14.254Z,27.21
2019-06-27T17:04:08.174Z,26.91
2019-06-27T17:06:59.761Z,26.46
2019-06-27T17:09:47.789Z,26.12
2019-06-27T17:12:40.246Z,26.43
2019-06-27T17:15:32.337Z,27.05
2019-06-27T17:18:24.951Z,27.48
2019-06-27T17:21:20.085Z,29.28
2019-06-27T17:24:21.604Z,28.60
2019-06-27T17:27:11.745Z,28.19
2019-06-27T17:30:00.622Z,29.36
2019-06-27T17:32:55.491Z,28.54
2019-06-27T17:35:52.424Z,29.94
2019-06-27T17:38:39.906Z,30.69
2019-06-27T17:41:37.939Z,34.19
2019-06-27T17:44:34.894Z,34.52
2019-06-27T17:47:27.286Z,34.00
2019-06-27T17:50:27.099Z,35.20
2019-06-27T17:53:31.334Z,34.67
2019-06-27T17:56:45.640Z,35.52
2019-06-27T18:00:07.297Z,36.02
2019-06-27T18:03:01.630Z,34.42
2019-06-27T18:06:04.211Z,32.50
2019-06-27T18:09:04.783Z,31.17
2019-06-27T18:11:55.900Z,30.87
2019-06-27T18:14:52.148Z,30.79
2019-06-27T18:17:53.079Z,30.72
2019-06-27T18:20:44.409Z,29.88
2019-06-27T18:23:36.749Z,30.41
2019-06-27T18:26:41.382Z,31.18
2019-06-27T18:29:30.629Z,31.55
2019-06-27T18:32:22.820Z,31.15
2019-06-27T18:35:16.905Z,31.73
2019-06-27T18:38:13.808Z,31.63
2019-06-27T18:41:03.764Z,33.19
2019-06-27T18:44:04.859Z,33.59
2019-06-27T18:46:59.653Z,34.91
2019-06-27T18:49:58.004Z,35.23
2019-06-27T18:52:47.831Z,34.98
2019-06-27T18:55:56.516Z,36.23
2019-06-27T18:59:13.241Z,35.80
2019-06-27T19:02:08.076Z,37.51
2019-06-27T19:05:00.796Z,39.10
2019-06-27T19:08:04.624Z,40.19
2019-06-27T19:11:14.563Z,42.02
2019-06-27T19:14:10.035Z,44.55
2019-06-27T19:17:26.738Z,47.48
2019-06-27T19:20:32.459Z,48.66
2019-06-27T19:23:43.227Z,50.26
2019-06-27T19:26:57.249Z,51.48
2019-06-27T19:29:51.289Z,52.34
2019-06-27T19:33:08.697Z,53.13
2019-06-27T19:36:04.389Z,53.78
2019-06-27T19:39:26.121Z,54.27
2019-06-27T19:42:29.930Z,55.09
2019-06-27T19:45:43.101Z,55.93
2019-06-27T19:48:31.415Z,57.04
2019-06-27T19:51:18.801Z,57.13
2019-06-27T19:54:06.639Z,57.91
2019-06-27T19:57:05.887Z,57.89
2019-06-27T20:00:00.915Z,58.01
2019-06-27T20:02:56.219Z,58.28
2019-06-27T20:05:46.909Z,58.33
2019-06-27T20:08:41.613Z,58.39
2019-06-27T20:11:30.168Z,58.68
2019-06-27T20:14:25.010Z,58.57
2019-06-27T20:17:20.119Z,58.82
2019-06-27T20:20:10.611Z,59.48
2019-06-27T20:23:06.461Z,60.17
2019-06-27T20:26:09.883Z,60.21
2019-06-27T20:29:09.534Z,60.66
2019-06-27T20:32:03.587Z,60.87
2019-06-27T20:35:09.874Z,61.09
2019-06-27T20:38:12.439Z,61.30
2019-06-27T20:41:09.563Z,61.29
2019-06-27T20:43:58.684Z,61.50
2019-06-27T20:47:15.498Z,62.00
2019-06-27T20:50:09.489Z,62.08
2019-06-27T20:53:13.986Z,62.23
2019-06-27T20:56:25.078Z,62.41
2019-06-27T20:59:38.432Z,62.29
2019-06-27T21:02:31.622Z,62.25
2019-06-27T21:05:23.509Z,62.34
2019-06-27T21:08:30.297Z,62.30
2019-06-27T21:11:33.443Z,62.17
2019-06-27T21:14:50.800Z,61.89
2019-06-27T21:18:05.626Z,61.99
2019-06-27T21:21:01.196Z,61.83
2019-06-27T21:24:09.568Z,61.93
2019-06-27T21:27:08.541Z,61.78
2019-06-27T21:30:04.851Z,62.11
2019-06-27T21:33:00.125Z,62.27
2019-06-27T21:36:01.466Z,62.55
2019-06-27T21:39:08.096Z,62.73
2019-06-27T21:42:03.935Z,63.04
2019-06-27T21:45:00.860Z,63.30
2019-06-27T21:48:09.895Z,63.33
2019-06-27T21:51:26.071Z,63.72
2019-06-27T21:54:13.028Z,63.62
2019-06-27T21:57:27.997Z,63.71
2019-06-27T22:00:20.740Z,64.00
2019-06-27T22:03:26.150Z,63.90
2019-06-27T22:06:27.372Z,63.86
2019-06-27T22:09:25.717Z,64.40
2019-06-27T22:12:35.931Z,64.40
2019-06-27T22:15:40.982Z,64.54
2019-06-27T22:18:42.446Z,64.71
2019-06-27T22:22:01.376Z,64.97
2019-06-27T22:24:57.451Z,65.08
2019-06-27T22:28:00.240Z,65.11
2019-06-27T22:31:10.025Z,64.81
2019-06-27T22:34:09.920Z,64.40
2019-06-27T22:37:40.499Z,64.77
2019-06-27T22:41:03.064Z,64.75
2019-06-27T22:44:14.940Z,64.35
2019-06-27T22:50:56.170Z,64.09
2019-06-27T22:54:07.906Z,64.36
2019-06-27T22:57:04.282Z,64.18
2019-06-27T23:00:07.012Z,64.38
2019-06-27T23:03:12.026Z,64.61
2019-06-27T23:06:24.323Z,64.67
2019-06-27T23:09:56.451Z,64.73
2019-06-27T23:12:47.717Z,64.34
2019-06-27T23:15:42.954Z,64.69
2019-06-27T23:18:40.671Z,64.82
2019-06-27T23:21:47.833Z,64.90
2019-06-27T23:24:48.110Z,64.60
2019-06-27T23:27:42.429Z,64.57
2019-06-27T23:30:41.239Z,64.66
2019-06-27T23:33:45.926Z,64.71
2019-06-27T23:36:37.340Z,65.06
2019-06-27T23:39:41.864Z,65.02
2019-06-27T23:42:27.660Z,64.77
2019-06-27T23:45:30.206Z,64.82
2019-06-27T23:48:20.990Z,65.06
2019-06-27T23:51:15.465Z,65.09
2019-06-27T23:54:13.154Z,65.38
2019-06-27T23:57:23.799Z,65.71
